Time;durP1;ratioP1;P1;durP2;ratioP2;P2;SDS_P1;SDS_P2;PMS_P1;PMS_P2;Temp;Humidity;BMP_temperature;BMP_pressure;BME280_temperature;BME280_humidity;BME280_pressure;Samples;Min_cycle;Max_cycle;Signal;HPM_P1;HPM_P2
2022/07/24 00:01:47;;;;;;;15.57;14.17;;;24.20;95.70;;;;;;5095070;28;20491;-68
2022/07/24 00:04:14;;;;;;;14.90;13.53;;;24.20;95.70;;;;;;5094716;28;20509;-69
2022/07/24 00:06:41;;;;;;;15.40;14.10;;;24.20;95.80;;;;;;5094990;28;20478;-68
2022/07/24 00:09:07;;;;;;;15.33;13.90;;;24.20;95.90;;;;;;5094749;28;20512;-68
2022/07/24 00:11:35;;;;;;;14.90;13.70;;;24.20;96.00;;;;;;5094741;28;20485;-68
2022/07/24 00:14:02;;;;;;;14.13;12.83;;;24.20;95.70;;;;;;5094778;28;20498;-68
2022/07/24 00:16:29;;;;;;;14.33;13.20;;;24.10;95.80;;;;;;5094725;28;20481;-68
2022/07/24 00:18:57;;;;;;;13.10;12.00;;;24.10;95.90;;;;;;5094608;28;20481;-68
2022/07/24 00:21:24;;;;;;;15.70;14.23;;;23.90;96.10;;;;;;5094726;28;20473;-68
2022/07/24 00:23:51;;;;;;;15.60;14.20;;;23.90;96.50;;;;;;5094264;28;20504;-69
2022/07/24 00:26:18;;;;;;;15.73;14.33;;;23.90;96.90;;;;;;5094608;28;20477;-68
2022/07/24 00:28:45;;;;;;;15.87;14.47;;;24.00;97.00;;;;;;5094453;28;20861;-68
2022/07/24 00:31:12;;;;;;;15.50;14.20;;;24.00;97.00;;;;;;5094583;28;20482;-68
2022/07/24 00:33:39;;;;;;;15.30;14.00;;;24.00;96.90;;;;;;5094511;28;20470;-68
2022/07/24 00:36:08;;;;;;;15.17;13.80;;;24.00;97.00;;;;;;5094374;28;20479;-68
2022/07/24 00:38:35;;;;;;;14.47;13.20;;;24.00;97.30;;;;;;5094183;28;20506;-68
2022/07/24 00:41:02;;;;;;;14.70;13.30;;;23.80;97.20;;;;;;5094202;28;20485;-68
2022/07/24 00:43:29;;;;;;;14.70;13.50;;;23.90;97.50;;;;;;5094114;28;20505;-68
2022/07/24 00:45:55;;;;;;;15.50;14.20;;;23.90;97.80;;;;;;5094084;28;20477;-68
2022/07/24 00:48:22;;;;;;;14.97;13.67;;;23.90;97.50;;;;;;5094251;28;20469;-68
2022/07/24 00:50:49;;;;;;;14.90;13.53;;;23.90;97.70;;;;;;5093319;28;20477;-68
2022/07/24 00:53:18;;;;;;;14.70;13.43;;;23.90;97.60;;;;;;5093921;28;20489;-68
2022/07/24 00:55:45;;;;;;;15.73;14.33;;;23.90;97.70;;;;;;5093872;28;21001;-68
2022/07/24 00:58:12;;;;;;;14.80;13.47;;;23.90;97.70;;;;;;5094038;28;20529;-68
2022/07/24 01:00:40;;;;;;;15.17;13.93;;;23.90;97.60;;;;;;5093979;28;20801;-68
2022/07/24 01:03:06;;;;;;;15.40;14.10;;;23.80;97.60;;;;;;5093984;28;20467;-68
2022/07/24 01:05:33;;;;;;;14.23;13.03;;;23.90;97.60;;;;;;5093642;28;20482;-68
2022/07/24 01:08:01;;;;;;;14.47;13.07;;;23.90;97.50;;;;;;5093976;28;20478;-68
2022/07/24 01:10:30;;;;;;;15.00;13.70;;;23.90;97.40;;;;;;5094314;28;20789;-68
2022/07/24 01:12:57;;;;;;;14.03;12.80;;;23.90;97.50;;;;;;5093821;28;20469;-68
2022/07/24 01:15:24;;;;;;;14.53;13.33;;;23.90;97.60;;;;;;5093354;28;21068;-68
2022/07/24 01:17:51;;;;;;;14.93;13.63;;;23.80;97.70;;;;;;5094105;28;20489;-68
2022/07/24 01:20:18;;;;;;;14.43;13.23;;;23.80;98.00;;;;;;5093528;28;20487;-68
2022/07/24 01:22:46;;;;;;;15.77;14.27;;;23.70;98.20;;;;;;5093640;28;20488;-68
2022/07/24 01:25:14;;;;;;;15.20;13.80;;;23.50;98.60;;;;;;5093651;28;20892;-68
2022/07/24 01:27:41;;;;;;;15.30;13.90;;;23.40;99.00;;;;;;5093636;28;20947;-68
2022/07/24 01:30:09;;;;;;;15.73;14.33;;;23.40;99.30;;;;;;5093481;28;20468;-68
2022/07/24 01:32:37;;;;;;;16.30;14.90;;;23.40;99.40;;;;;;5093460;28;20942;-68
2022/07/24 01:35:04;;;;;;;15.23;13.93;;;23.40;99.60;;;;;;5093254;28;20469;-68
2022/07/24 01:37:31;;;;;;;14.90;13.70;;;23.50;99.30;;;;;;5093617;28;20436;-68
2022/07/24 01:39:59;;;;;;;14.53;13.30;;;23.40;99.10;;;;;;5093552;28;20516;-68
2022/07/24 01:42:26;;;;;;;14.43;13.17;;;23.40;99.10;;;;;;5093547;28;20485;-68
2022/07/24 01:44:53;;;;;;;14.30;13.00;;;23.50;99.10;;;;;;5093631;28;20495;-68
2022/07/24 01:47:20;;;;;;;13.57;12.37;;;23.50;99.00;;;;;;5093425;28;20476;-68
2022/07/24 01:49:47;;;;;;;15.30;13.73;;;23.50;98.90;;;;;;5093359;28;20520;-68
2022/07/24 01:52:14;;;;;;;15.50;13.97;;;23.50;98.80;;;;;;5093511;28;20473;-67
2022/07/24 01:54:41;;;;;;;15.40;14.00;;;23.50;98.80;;;;;;5092908;28;20504;-68
2022/07/24 01:57:09;;;;;;;15.60;14.23;;;23.50;99.00;;;;;;5093456;28;20473;-68
2022/07/24 01:59:36;;;;;;;15.30;13.90;;;23.40;99.20;;;;;;5093365;28;20473;-68
2022/07/24 02:02:03;;;;;;;15.53;14.23;;;23.40;99.30;;;;;;5096193;28;20847;-68
2022/07/24 02:04:30;;;;;;;15.33;14.03;;;23.40;99.30;;;;;;5097001;28;20548;-68
2022/07/24 02:06:56;;;;;;;15.10;13.73;;;23.30;99.30;;;;;;5097243;28;20472;-68
2022/07/24 02:09:23;;;;;;;16.10;14.60;;;23.20;99.40;;;;;;5097191;28;20519;-68
2022/07/24 02:11:50;;;;;;;15.07;13.77;;;23.30;99.70;;;;;;5097003;28;20445;-68
2022/07/24 02:14:18;;;;;;;15.53;14.03;;;23.20;99.70;;;;;;5097224;28;20472;-68
2022/07/24 02:16:45;;;;;;;15.37;13.97;;;23.20;99.50;;;;;;5097142;28;20958;-68
2022/07/24 02:19:12;;;;;;;15.97;14.37;;;23.20;99.70;;;;;;5097040;28;20476;-68
2022/07/24 02:21:39;;;;;;;15.23;13.93;;;23.20;99.90;;;;;;5097053;28;20464;-68
2022/07/24 02:24:06;;;;;;;13.70;12.60;;;23.20;99.90;;;;;;5096499;28;20502;-68
2022/07/24 02:26:33;;;;;;;15.80;14.20;;;23.20;99.90;;;;;;5096708;28;20947;-68
2022/07/24 02:29:00;;;;;;;15.80;14.50;;;23.10;99.90;;;;;;5096756;28;20960;-68
2022/07/24 02:31:28;;;;;;;16.23;14.83;;;23.10;99.90;;;;;;5096884;28;20873;-68
2022/07/24 02:33:55;;;;;;;16.00;14.60;;;23.10;99.90;;;;;;5096538;28;20507;-68
2022/07/24 02:36:22;;;;;;;15.10;13.80;;;22.90;99.90;;;;;;5096691;28;20471;-68
2022/07/24 02:38:49;;;;;;;16.87;15.37;;;22.90;99.90;;;;;;5096396;28;20487;-68
2022/07/24 02:41:16;;;;;;;15.33;13.93;;;22.90;99.90;;;;;;5096659;28;20519;-68
2022/07/24 02:43:43;;;;;;;15.50;14.00;;;22.90;99.90;;;;;;5096167;28;20491;-69
2022/07/24 02:46:09;;;;;;;15.50;14.10;;;22.90;99.90;;;;;;5096580;28;20523;-68
2022/07/24 02:48:38;;;;;;;15.63;14.23;;;22.90;99.90;;;;;;5096500;28;20476;-68
2022/07/24 02:51:05;;;;;;;14.67;13.37;;;22.90;99.90;;;;;;5096348;28;20487;-68
2022/07/24 02:53:32;;;;;;;15.47;14.00;;;22.80;99.90;;;;;;5096015;28;20982;-68
2022/07/24 02:55:59;;;;;;;16.30;14.80;;;22.80;99.90;;;;;;5096247;28;20483;-68
2022/07/24 02:58:26;;;;;;;15.07;13.67;;;22.80;99.90;;;;;;5096209;28;20971;-68
2022/07/24 03:00:53;;;;;;;15.27;13.90;;;22.80;99.90;;;;;;5096245;28;20509;-68
2022/07/24 03:03:19;;;;;;;15.70;14.27;;;22.80;99.90;;;;;;5096204;28;20531;-68
2022/07/24 03:05:48;;;;;;;15.00;13.60;;;22.70;99.90;;;;;;5096035;28;20526;-68
2022/07/24 03:08:15;;;;;;;16.17;14.60;;;22.50;99.90;;;;;;5096175;28;20475;-68
2022/07/24 03:10:42;;;;;;;15.30;13.90;;;22.40;99.90;;;;;;5095794;28;20444;-68
2022/07/24 03:13:08;;;;;;;16.43;15.00;;;22.40;99.90;;;;;;5094890;28;20476;-68
2022/07/24 03:15:35;;;;;;;15.27;13.93;;;22.50;99.90;;;;;;5095851;28;20874;-68
2022/07/24 03:18:02;;;;;;;15.47;14.07;;;22.30;99.90;;;;;;5095881;28;20472;-68
2022/07/24 03:20:30;;;;;;;15.40;14.00;;;22.20;99.90;;;;;;5095565;28;20563;-68
2022/07/24 03:22:58;;;;;;;14.87;13.47;;;22.20;99.90;;;;;;5095893;28;20480;-68
2022/07/24 03:25:25;;;;;;;15.10;13.70;;;22.30;99.90;;;;;;5095581;28;20495;-68
2022/07/24 03:27:52;;;;;;;14.77;13.37;;;22.30;99.90;;;;;;5095631;28;20483;-68
2022/07/24 03:30:20;;;;;;;15.03;13.73;;;22.40;99.90;;;;;;5095918;28;20436;-68
2022/07/24 03:32:47;;;;;;;13.80;12.60;;;22.40;99.90;;;;;;5095632;28;20443;-67
2022/07/24 03:35:14;;;;;;;15.57;14.07;;;22.40;99.90;;;;;;5095423;28;20491;-68
2022/07/24 03:37:41;;;;;;;14.40;13.13;;;22.30;99.90;;;;;;5095413;28;20942;-68
2022/07/24 03:40:10;;;;;;;15.50;14.10;;;22.30;99.90;;;;;;5095293;28;20567;-68
2022/07/24 03:42:37;;;;;;;14.30;13.00;;;22.20;99.90;;;;;;5095401;28;20849;-67
2022/07/24 03:45:05;;;;;;;15.57;14.17;;;22.20;99.90;;;;;;5094904;28;20503;-68
2022/07/24 03:47:32;;;;;;;15.13;13.83;;;22.20;99.90;;;;;;5095357;28;20886;-68
2022/07/24 03:49:59;;;;;;;14.80;13.43;;;22.20;99.90;;;;;;5095352;28;20860;-68
2022/07/24 03:52:26;;;;;;;15.10;13.60;;;22.20;99.90;;;;;;5095309;28;20475;-68
2022/07/24 03:54:52;;;;;;;16.53;15.07;;;22.30;99.90;;;;;;5094905;28;20476;-68
2022/07/24 03:57:21;;;;;;;15.60;14.20;;;22.20;99.90;;;;;;5095201;28;20475;-68
2022/07/24 03:59:48;;;;;;;15.70;14.20;;;22.00;99.90;;;;;;5094973;28;20508;-68
2022/07/24 04:02:15;;;;;;;15.07;13.70;;;21.90;99.90;;;;;;5095106;28;20483;-67
2022/07/24 04:04:42;;;;;;;15.40;14.00;;;22.00;99.90;;;;;;5094839;28;20886;-67
2022/07/24 04:07:09;;;;;;;14.83;13.40;;;22.00;99.90;;;;;;5095009;28;20439;-67
2022/07/24 04:09:35;;;;;;;14.63;13.23;;;21.90;99.90;;;;;;5094936;28;20449;-68
2022/07/24 04:12:02;;;;;;;14.37;13.17;;;21.90;99.90;;;;;;5094908;28;20484;-68
2022/07/24 04:14:32;;;;;;;15.33;13.90;;;22.00;99.90;;;;;;5094426;28;20528;-68
2022/07/24 04:16:59;;;;;;;14.40;13.10;;;22.10;99.90;;;;;;5095469;28;20459;-68
2022/07/24 04:19:25;;;;;;;16.03;14.33;;;22.10;99.90;;;;;;5094554;28;20977;-68
2022/07/24 04:21:52;;;;;;;15.20;13.80;;;22.00;99.90;;;;;;5094607;28;20539;-68
2022/07/24 04:24:19;;;;;;;14.93;13.53;;;22.10;99.90;;;;;;5094305;28;20543;-68
2022/07/24 04:26:46;;;;;;;15.27;13.90;;;22.10;99.90;;;;;;5094642;28;20451;-68
2022/07/24 04:29:13;;;;;;;15.07;13.70;;;22.10;99.90;;;;;;5094620;28;20479;-68
2022/07/24 04:31:41;;;;;;;14.83;13.53;;;22.10;99.90;;;;;;5094351;28;20871;-67
2022/07/24 04:34:08;;;;;;;14.93;13.63;;;22.00;99.90;;;;;;5094170;28;20466;-67
2022/07/24 04:36:35;;;;;;;14.50;13.20;;;22.00;99.90;;;;;;5094484;28;20499;-68
2022/07/24 04:39:02;;;;;;;15.07;13.63;;;22.10;99.90;;;;;;5094416;28;20487;-68
2022/07/24 04:41:29;;;;;;;14.57;13.27;;;22.20;99.90;;;;;;5094223;28;20573;-68
2022/07/24 04:43:56;;;;;;;16.30;14.90;;;22.20;99.90;;;;;;5094119;28;20467;-68
2022/07/24 04:46:23;;;;;;;15.50;14.07;;;22.10;99.90;;;;;;5094321;28;20443;-67
2022/07/24 04:48:51;;;;;;;15.50;14.10;;;22.10;99.90;;;;;;5094297;28;20522;-67
2022/07/24 04:51:18;;;;;;;15.27;13.97;;;22.10;99.90;;;;;;5094217;28;20483;-68
2022/07/24 04:53:46;;;;;;;15.57;14.07;;;22.10;99.90;;;;;;5093728;28;20544;-68
2022/07/24 04:56:13;;;;;;;14.93;13.70;;;22.10;99.90;;;;;;5094378;28;20443;-67
2022/07/24 04:58:40;;;;;;;16.27;14.80;;;22.10;99.90;;;;;;5094066;28;20440;-68
2022/07/24 05:01:07;;;;;;;15.93;14.23;;;22.10;99.90;;;;;;5093987;28;20578;-68
2022/07/24 05:03:33;;;;;;;15.53;14.13;;;22.20;99.90;;;;;;5094034;28;20464;-67
2022/07/24 05:06:02;;;;;;;16.63;15.10;;;22.20;99.90;;;;;;5093945;28;20542;-67
2022/07/24 05:08:28;;;;;;;15.87;14.47;;;22.30;99.90;;;;;;5093852;28;20475;-67
2022/07/24 05:10:55;;;;;;;16.30;14.87;;;22.30;99.90;;;;;;5093626;28;20483;-68
2022/07/24 05:13:22;;;;;;;16.23;14.83;;;22.10;99.90;;;;;;5093621;28;20476;-67
2022/07/24 05:15:49;;;;;;;16.43;15.00;;;22.20;99.90;;;;;;5093724;28;20435;-68
2022/07/24 05:18:16;;;;;;;15.60;14.30;;;22.30;99.90;;;;;;5093815;28;20475;-68
2022/07/24 05:20:43;;;;;;;15.97;14.57;;;22.30;99.90;;;;;;5093655;28;20568;-68
2022/07/24 05:23:11;;;;;;;17.17;15.40;;;22.40;99.90;;;;;;5093562;28;20448;-68
2022/07/24 05:25:38;;;;;;;17.03;15.43;;;22.40;99.90;;;;;;5093590;28;20468;-67
2022/07/24 05:28:05;;;;;;;19.77;17.97;;;22.40;99.90;;;;;;5093708;28;20494;-67
2022/07/24 05:30:32;;;;;;;17.27;15.67;;;22.50;99.90;;;;;;5093679;28;20467;-68
2022/07/24 05:32:59;;;;;;;18.40;16.60;;;22.50;99.90;;;;;;5093623;28;20472;-67
2022/07/24 05:35:26;;;;;;;17.10;15.60;;;22.50;99.90;;;;;;5093200;28;20841;-69
2022/07/24 05:37:53;;;;;;;19.47;17.77;;;22.40;99.90;;;;;;5097597;28;20490;-67
2022/07/24 05:40:21;;;;;;;19.47;17.67;;;22.40;99.90;;;;;;5097831;28;20907;-68
2022/07/24 05:42:48;;;;;;;19.37;17.57;;;22.30;99.90;;;;;;5097871;28;20467;-68
2022/07/24 05:45:15;;;;;;;19.70;17.90;;;22.10;99.90;;;;;;5097725;28;20543;-67
2022/07/24 05:47:42;;;;;;;20.30;18.37;;;22.00;99.90;;;;;;5097650;28;20479;-67
2022/07/24 05:50:10;;;;;;;20.70;18.80;;;22.00;99.90;;;;;;5097511;28;20472;-68
2022/07/24 05:52:37;;;;;;;18.63;16.93;;;22.00;99.90;;;;;;5097167;28;20471;-69
2022/07/24 05:55:06;;;;;;;19.43;17.53;;;22.10;99.90;;;;;;5097386;28;20885;-67
2022/07/24 05:57:34;;;;;;;19.70;17.90;;;22.20;99.90;;;;;;5097554;28;20461;-68
2022/07/24 06:00:01;;;;;;;19.03;17.40;;;22.10;99.90;;;;;;5097297;28;21060;-67
2022/07/24 06:02:28;;;;;;;20.60;18.60;;;22.10;99.90;;;;;;5097408;28;20489;-67
2022/07/24 06:04:55;;;;;;;20.07;18.20;;;22.00;99.90;;;;;;5096929;28;20993;-67
2022/07/24 06:07:22;;;;;;;21.00;19.20;;;22.00;99.90;;;;;;5097351;28;20438;-68
2022/07/24 06:09:51;;;;;;;20.70;18.77;;;22.00;99.90;;;;;;5097311;28;20487;-67
2022/07/24 06:12:18;;;;;;;19.83;17.87;;;22.00;99.90;;;;;;5097113;28;20447;-68
2022/07/24 06:14:46;;;;;;;20.50;18.73;;;22.00;99.90;;;;;;5096846;28;20466;-68
2022/07/24 06:17:13;;;;;;;19.10;17.40;;;22.00;99.90;;;;;;5097128;28;20471;-68
2022/07/24 06:19:40;;;;;;;19.47;17.77;;;22.10;99.90;;;;;;5097063;28;20475;-67
2022/07/24 06:22:07;;;;;;;18.60;16.90;;;22.20;99.90;;;;;;5097089;28;20442;-67
2022/07/24 06:24:34;;;;;;;18.60;16.80;;;22.20;99.90;;;;;;5096571;28;21007;-67
2022/07/24 06:27:01;;;;;;;19.93;18.03;;;22.20;99.90;;;;;;5096851;28;20472;-67
2022/07/24 06:29:28;;;;;;;19.20;17.33;;;22.30;99.90;;;;;;5096847;28;20471;-68
2022/07/24 06:31:56;;;;;;;21.40;19.20;;;22.30;99.90;;;;;;5096728;28;20432;-67
2022/07/24 06:34:24;;;;;;;19.63;17.70;;;22.30;99.90;;;;;;5096845;28;20455;-67
2022/07/24 06:36:51;;;;;;;20.33;18.57;;;22.40;99.90;;;;;;5096792;28;20444;-67
2022/07/24 06:39:18;;;;;;;17.93;16.33;;;22.50;99.90;;;;;;5096732;28;20468;-68
2022/07/24 06:41:45;;;;;;;19.80;18.00;;;22.60;99.90;;;;;;5096477;28;20571;-67
2022/07/24 06:44:12;;;;;;;21.40;19.17;;;22.60;99.90;;;;;;5096320;28;20990;-69
2022/07/24 06:46:39;;;;;;;18.40;16.80;;;22.70;99.90;;;;;;5096561;28;20515;-68
2022/07/24 06:49:07;;;;;;;19.17;17.30;;;22.70;99.90;;;;;;5096616;28;20680;-67
2022/07/24 06:51:34;;;;;;;19.10;17.30;;;22.80;99.90;;;;;;5096507;28;20436;-67
2022/07/24 06:54:00;;;;;;;19.83;18.10;;;22.90;99.90;;;;;;5096262;28;20888;-67
2022/07/24 06:56:27;;;;;;;19.53;17.70;;;23.00;99.90;;;;;;5096335;28;20515;-68
2022/07/24 06:58:54;;;;;;;19.07;17.40;;;23.00;99.90;;;;;;5096314;28;20480;-68
2022/07/24 07:01:21;;;;;;;18.60;17.00;;;23.10;99.90;;;;;;5095984;28;20564;-68
2022/07/24 07:03:49;;;;;;;19.63;17.83;;;23.20;99.90;;;;;;5095820;28;20468;-68
2022/07/24 07:06:17;;;;;;;18.63;17.03;;;23.30;99.90;;;;;;5096088;28;20449;-68
2022/07/24 07:08:44;;;;;;;19.53;17.73;;;23.50;99.90;;;;;;5096440;28;20532;-68
2022/07/24 07:11:11;;;;;;;18.83;17.23;;;23.60;99.90;;;;;;5096064;28;20474;-68
2022/07/24 07:13:37;;;;;;;17.80;16.20;;;23.80;99.90;;;;;;5095918;28;20466;-68
2022/07/24 07:16:05;;;;;;;17.07;15.57;;;23.90;99.90;;;;;;5095924;28;20479;-67
2022/07/24 07:18:32;;;;;;;17.50;15.90;;;24.10;99.90;;;;;;5095969;28;20453;-68
2022/07/24 07:20:59;;;;;;;17.43;15.83;;;24.20;99.90;;;;;;5095895;28;20513;-68
2022/07/24 07:23:27;;;;;;;17.40;15.73;;;24.30;99.90;;;;;;5095771;28;20447;-68
2022/07/24 07:25:54;;;;;;;16.67;15.17;;;24.50;99.90;;;;;;5095638;28;20862;-67
2022/07/24 07:28:21;;;;;;;18.23;16.57;;;24.70;99.90;;;;;;5095692;28;20921;-68
2022/07/24 07:30:48;;;;;;;17.20;15.70;;;24.80;99.90;;;;;;5095541;28;20443;-68
2022/07/24 07:33:15;;;;;;;16.53;15.17;;;24.80;99.90;;;;;;5095454;28;20443;-68
2022/07/24 07:35:42;;;;;;;17.40;15.90;;;24.80;99.90;;;;;;5095459;28;20440;-67
2022/07/24 07:38:09;;;;;;;16.50;15.13;;;24.90;99.90;;;;;;5095837;28;20450;-67
2022/07/24 07:40:37;;;;;;;16.77;15.17;;;25.00;99.90;;;;;;5095432;28;20483;-68
2022/07/24 07:43:04;;;;;;;15.97;14.57;;;25.10;99.90;;;;;;5095565;28;20476;-68
2022/07/24 07:45:31;;;;;;;17.00;15.40;;;25.20;99.90;;;;;;5095208;28;20502;-68
2022/07/24 07:47:58;;;;;;;16.20;14.70;;;25.20;99.90;;;;;;5095416;28;20443;-68
2022/07/24 07:50:25;;;;;;;15.93;14.20;;;25.20;99.90;;;;;;5095374;28;20475;-68
2022/07/24 07:52:52;;;;;;;15.20;13.87;;;25.50;99.90;;;;;;5095210;28;20471;-68
2022/07/24 07:55:18;;;;;;;16.10;14.80;;;25.50;99.70;;;;;;5094847;28;20506;-68
2022/07/24 07:57:47;;;;;;;15.00;13.70;;;25.40;99.00;;;;;;5095471;28;20436;-68
2022/07/24 08:00:14;;;;;;;14.93;13.60;;;25.30;99.10;;;;;;5094650;28;20513;-68
2022/07/24 08:02:41;;;;;;;14.37;13.17;;;25.20;99.10;;;;;;5095177;28;20516;-68
2022/07/24 08:05:09;;;;;;;14.40;13.20;;;25.20;98.80;;;;;;5094620;28;20468;-68
2022/07/24 08:07:36;;;;;;;14.53;13.33;;;25.30;98.50;;;;;;5095078;28;20436;-67
2022/07/24 08:10:04;;;;;;;14.00;12.80;;;25.40;97.50;;;;;;5095005;28;20487;-68
2022/07/24 08:12:31;;;;;;;13.90;12.80;;;25.80;96.10;;;;;;5094685;28;20440;-67
2022/07/24 08:14:59;;;;;;;12.30;11.17;;;26.30;94.90;;;;;;5094513;28;20980;-68
2022/07/24 08:17:26;;;;;;;12.67;11.60;;;27.00;92.80;;;;;;5094837;28;20537;-68
2022/07/24 08:19:53;;;;;;;13.20;11.90;;;27.90;91.40;;;;;;5094831;28;20475;-68
2022/07/24 08:22:19;;;;;;;12.70;11.70;;;28.90;88.10;;;;;;5094615;28;20508;-68
2022/07/24 08:24:46;;;;;;;13.17;12.07;;;29.70;83.40;;;;;;5094489;28;20491;-68
2022/07/24 08:27:13;;;;;;;13.10;12.10;;;30.10;79.90;;;;;;5094668;28;20440;-68
2022/07/24 08:29:40;;;;;;;13.50;12.40;;;30.10;78.60;;;;;;5094670;28;20869;-68
2022/07/24 08:32:08;;;;;;;12.17;11.13;;;29.90;78.40;;;;;;5094432;28;20977;-68
2022/07/24 08:34:35;;;;;;;12.83;11.73;;;30.00;78.20;;;;;;5094150;28;20464;-68
2022/07/24 08:37:02;;;;;;;11.87;11.00;;;30.00;77.10;;;;;;5094247;28;20475;-68
2022/07/24 08:39:29;;;;;;;13.00;11.80;;;30.40;76.50;;;;;;5094434;28;20443;-68
2022/07/24 08:41:56;;;;;;;12.90;11.90;;;31.60;73.90;;;;;;5094319;28;20541;-68
2022/07/24 08:44:23;;;;;;;12.67;11.77;;;32.80;67.30;;;;;;5093975;28;20877;-68
2022/07/24 08:46:54;;;;;;;11.37;10.53;;;33.20;62.00;;;;;;5094245;28;20475;-68
2022/07/24 08:49:23;;;;;;;12.37;11.40;;;33.40;60.50;;;;;;5094264;28;20532;-68
2022/07/24 08:51:52;;;;;;;12.07;11.17;;;34.10;58.30;;;;;;5094203;28;20472;-69
2022/07/24 08:54:19;;;;;;;11.07;10.27;;;34.80;57.70;;;;;;5093897;28;20511;-66
2022/07/24 08:56:46;;;;;;;12.10;11.20;;;35.90;53.30;;;;;;5094185;28;20523;-66
2022/07/24 08:59:18;;;;;;;10.93;10.23;;;36.60;50.70;;;;;;5094130;28;20440;-68
2022/07/24 09:01:45;;;;;;;11.73;10.87;;;37.00;49.80;;;;;;5094001;28;20480;-68
2022/07/24 09:04:35;;;;;;;11.87;11.07;;;37.10;48.90;;;;;;5093525;28;20456;-69
2022/07/24 09:07:03;;;;;;;10.90;10.13;;;37.30;47.00;;;;;;5094300;28;20436;-69
2022/07/24 09:09:30;;;;;;;11.50;10.70;;;37.40;46.70;;;;;;5093984;28;20436;-69
2022/07/24 09:12:05;;;;;;;11.70;10.70;;;37.30;46.80;;;;;;5093111;28;20487;-69
2022/07/24 09:14:32;;;;;;;12.30;11.40;;;37.70;45.90;;;;;;5093541;28;20463;-69
2022/07/24 09:17:03;;;;;;;11.00;10.27;;;37.80;45.60;;;;;;5093850;28;20468;-69
2022/07/24 09:19:30;;;;;;;11.27;10.57;;;38.20;45.80;;;;;;5093682;28;20986;-69
2022/07/24 09:21:59;;;;;;;12.73;11.83;;;38.20;44.40;;;;;;5093716;28;20479;-69
2022/07/24 09:24:26;;;;;;;11.37;10.60;;;38.60;43.10;;;;;;5093372;28;20503;-69
2022/07/24 09:26:55;;;;;;;11.23;10.43;;;38.40;42.90;;;;;;5093706;28;20534;-69
2022/07/24 09:29:24;;;;;;;11.73;10.93;;;39.30;43.90;;;;;;5093738;28;20812;-69
2022/07/24 09:31:56;;;;;;;11.67;10.67;;;39.00;41.90;;;;;;5093682;28;20833;-69
2022/07/24 09:34:24;;;;;;;11.70;10.80;;;38.20;43.20;;;;;;5093380;28;20472;-69
2022/07/24 09:37:00;;;;;;;12.73;11.83;;;38.10;43.30;;;;;;5093668;28;20440;-68
2022/07/24 09:39:28;;;;;;;11.90;11.10;;;38.10;42.40;;;;;;5093618;28;20860;-69
2022/07/24 09:41:57;;;;;;;11.43;10.63;;;37.80;42.80;;;;;;5093629;28;20511;-69
2022/07/24 09:44:25;;;;;;;11.17;10.40;;;37.60;42.80;;;;;;5093154;28;20992;-69
2022/07/24 09:46:59;;;;;;;11.47;10.67;;;37.20;42.80;;;;;;5093638;28;20494;-68
2022/07/24 09:49:28;;;;;;;11.77;10.97;;;36.60;44.10;;;;;;5093686;28;20482;-68
2022/07/24 09:52:18;;;;;;;12.27;11.17;;;35.10;46.20;;;;;;5093502;28;20472;-68
2022/07/24 09:54:47;;;;;;;12.67;11.67;;;34.20;48.00;;;;;;5089194;28;20508;-68
2022/07/24 09:57:22;;;;;;;11.70;10.80;;;33.10;49.70;;;;;;5093346;28;20803;-68
2022/07/24 09:59:50;;;;;;;11.20;10.40;;;32.20;51.10;;;;;;5093521;28;20469;-68
2022/07/24 10:02:19;;;;;;;12.37;11.27;;;31.50;52.60;;;;;;5093553;28;20531;-68
2022/07/24 10:04:47;;;;;;;11.37;10.57;;;30.90;54.00;;;;;;5093327;28;20499;-68
2022/07/24 10:07:17;;;;;;;13.63;12.53;;;30.30;55.20;;;;;;5093425;28;20435;-68
2022/07/24 10:09:45;;;;;;;12.43;11.43;;;29.90;56.60;;;;;;5093430;28;20483;-68
2022/07/24 10:12:14;;;;;;;11.90;11.00;;;29.60;57.40;;;;;;5093233;28;20531;-68
2022/07/24 10:14:42;;;;;;;12.20;11.20;;;29.30;58.20;;;;;;5092940;28;20498;-68
2022/07/24 10:17:11;;;;;;;12.07;11.20;;;29.00;59.90;;;;;;5093296;28;20436;-68
2022/07/24 10:19:42;;;;;;;12.07;11.07;;;29.20;60.90;;;;;;5093422;28;20494;-68
2022/07/24 10:22:11;;;;;;;11.70;10.80;;;29.70;60.40;;;;;;5094416;28;20507;-68
2022/07/24 10:25:07;;;;;;;12.03;11.10;;;30.00;59.40;;;;;;5096674;28;20525;-68
2022/07/24 10:27:35;;;;;;;11.77;10.83;;;30.10;58.70;;;;;;5097032;28;20520;-68
2022/07/24 10:30:05;;;;;;;13.07;12.07;;;30.20;58.80;;;;;;5096770;28;20918;-68
2022/07/24 10:32:33;;;;;;;12.53;11.53;;;30.00;59.40;;;;;;5096752;28;20841;-68
2022/07/24 10:35:12;;;;;;;12.30;11.33;;;29.90;59.00;;;;;;5096380;28;21044;-68
2022/07/24 10:37:55;;;;;;;12.57;11.57;;;29.50;59.70;;;;;;5096819;28;20440;-68
2022/07/24 10:40:31;;;;;;;12.40;11.40;;;29.60;59.80;;;;;;5096672;28;20450;-68
2022/07/24 10:43:15;;;;;;;11.83;10.90;;;30.60;58.40;;;;;;5096694;28;20522;-68
2022/07/24 10:45:44;;;;;;;12.80;11.80;;;32.30;56.40;;;;;;5096598;28;20819;-68
2022/07/24 10:48:32;;;;;;;12.30;11.27;;;32.90;54.50;;;;;;5096530;28;20476;-69
2022/07/24 10:51:06;;;;;;;12.10;11.10;;;33.60;52.80;;;;;;5096573;28;20505;-69
2022/07/24 10:53:56;;;;;;;12.20;11.30;;;33.70;51.90;;;;;;5096374;28;20474;-68
2022/07/24 10:56:28;;;;;;;11.90;10.90;;;33.60;52.30;;;;;;5096439;28;20480;-69
2022/07/24 10:59:01;;;;;;;12.10;11.30;;;33.60;52.80;;;;;;5096224;28;20926;-69
2022/07/24 11:01:42;;;;;;;12.40;11.50;;;33.70;51.10;;;;;;5096321;28;20444;-69
2022/07/24 11:04:29;;;;;;;12.90;12.00;;;33.40;51.80;;;;;;5096051;28;20477;-69
2022/07/24 11:06:57;;;;;;;12.30;11.40;;;32.90;53.10;;;;;;5096463;28;20436;-69
2022/07/24 11:09:25;;;;;;;12.90;11.80;;;32.60;54.60;;;;;;5096196;28;20482;-68
2022/07/24 11:12:07;;;;;;;13.20;12.20;;;32.30;54.10;;;;;;5096134;28;20446;-68
2022/07/24 11:14:51;;;;;;;12.67;11.67;;;31.90;54.30;;;;;;5095663;28;20492;-68
2022/07/24 11:17:37;;;;;;;11.93;10.93;;;31.40;55.00;;;;;;5095949;28;20483;-68
2022/07/24 11:20:06;;;;;;;11.60;10.70;;;31.30;55.40;;;;;;5095824;28;20452;-69
2022/07/24 11:22:42;;;;;;;11.87;10.83;;;31.40;56.20;;;;;;5095682;28;20540;-68
2022/07/24 11:25:15;;;;;;;12.17;11.13;;;31.70;55.40;;;;;;5096034;28;20577;-68
2022/07/24 11:27:49;;;;;;;12.80;11.80;;;31.70;54.70;;;;;;5095823;28;20508;-68
2022/07/24 11:30:17;;;;;;;12.73;11.50;;;31.60;55.50;;;;;;5095878;28;20783;-68
2022/07/24 11:32:44;;;;;;;12.73;11.77;;;31.50;56.50;;;;;;5095966;28;20436;-68
2022/07/24 11:35:12;;;;;;;12.30;11.40;;;31.40;55.00;;;;;;5094662;28;20533;-68
2022/07/24 11:37:42;;;;;;;12.13;11.13;;;31.00;55.40;;;;;;5095360;28;20871;-68
2022/07/24 11:40:14;;;;;;;12.83;11.60;;;30.80;56.60;;;;;;5095564;28;20539;-69
2022/07/24 11:42:41;;;;;;;12.30;11.40;;;30.70;56.20;;;;;;5095491;28;20615;-68
2022/07/24 11:45:10;;;;;;;11.97;10.97;;;30.70;56.80;;;;;;5095280;28;20499;-68
2022/07/24 11:47:37;;;;;;;12.07;11.13;;;31.00;57.30;;;;;;5095523;28;20984;-68
2022/07/24 11:50:06;;;;;;;12.43;11.53;;;31.30;55.60;;;;;;5095379;28;20527;-68
2022/07/24 11:52:35;;;;;;;12.10;11.20;;;31.40;55.00;;;;;;5095220;28;20477;-69
2022/07/24 11:55:09;;;;;;;12.53;11.53;;;31.20;54.80;;;;;;5094825;28;20460;-68
2022/07/24 11:57:38;;;;;;;13.27;12.17;;;31.00;55.70;;;;;;5095304;28;20466;-68
2022/07/24 12:00:09;;;;;;;12.87;11.87;;;30.80;55.80;;;;;;5095056;28;20926;-68
2022/07/24 12:02:38;;;;;;;11.70;10.87;;;30.40;55.70;;;;;;5095137;28;20873;-68
2022/07/24 12:05:05;;;;;;;11.93;11.03;;;30.10;57.20;;;;;;5094696;28;20503;-68
2022/07/24 12:07:32;;;;;;;12.03;11.13;;;30.00;57.00;;;;;;5095011;28;20918;-68
2022/07/24 12:10:01;;;;;;;12.20;11.20;;;29.90;57.30;;;;;;5094813;28;20929;-68
2022/07/24 12:12:30;;;;;;;12.10;11.30;;;29.70;57.60;;;;;;5095002;28;20474;-69
2022/07/24 12:15:04;;;;;;;12.73;11.80;;;29.80;58.00;;;;;;5094788;28;20506;-68
2022/07/24 12:17:32;;;;;;;11.70;10.80;;;29.80;58.00;;;;;;5094883;28;20447;-69
2022/07/24 12:20:02;;;;;;;11.57;10.70;;;30.20;57.70;;;;;;5094836;28;20480;-68
2022/07/24 12:22:30;;;;;;;12.20;11.30;;;30.70;58.50;;;;;;5094751;28;20483;-68
2022/07/24 12:24:58;;;;;;;12.60;11.60;;;31.00;55.80;;;;;;5094351;28;20851;-68
2022/07/24 12:27:40;;;;;;;13.73;12.53;;;31.20;56.60;;;;;;5094874;28;20455;-69
2022/07/24 12:30:26;;;;;;;12.17;11.27;;;31.20;56.20;;;;;;5094600;28;20440;-68
2022/07/24 12:32:55;;;;;;;11.50;10.60;;;31.30;56.90;;;;;;5094640;28;20480;-68
2022/07/24 12:35:24;;;;;;;12.83;11.83;;;31.60;55.50;;;;;;5094186;28;20474;-69